Time;durP1;ratioP1;P1;durP2;ratioP2;P2;SDS_P1;SDS_P2;PMS_P1;PMS_P2;Temp;Humidity;BMP_temperature;BMP_pressure;BME280_temperature;BME280_humidity;BME280_pressure;Samples;Min_cycle;Max_cycle;Signal;HPM_P1;HPM_P2
2021/04/25 00:00:26;;;;;;;1999.90;999.90;;;7.10;43.20;;;;;;5047048;28;20077;-72
2021/04/25 00:02:52;;;;;;;1999.90;999.90;;;7.10;43.50;;;;;;5048115;28;20091;-72
2021/04/25 00:05:19;;;;;;;1999.90;999.90;;;7.00;44.10;;;;;;5037175;28;20046;-72
2021/04/25 00:07:46;;;;;;;1999.90;999.90;;;6.90;43.40;;;;;;5050130;28;20049;-72
2021/04/25 00:10:15;;;;;;;1999.90;999.90;;;6.80;43.50;;;;;;5052516;28;20068;-72
2021/04/25 00:12:42;;;;;;;1999.90;999.90;;;6.80;43.80;;;;;;5048743;28;20055;-72
2021/04/25 00:15:12;;;;;;;1999.90;999.90;;;6.70;43.60;;;;;;5023457;28;20044;-72
2021/04/25 00:17:38;;;;;;;1999.90;999.90;;;6.70;43.80;;;;;;5046737;28;20484;-72
2021/04/25 00:20:07;;;;;;;1999.90;999.90;;;6.70;43.80;;;;;;5026122;28;20045;-71
2021/04/25 00:22:33;;;;;;;1999.90;999.90;;;6.70;44.10;;;;;;5052127;28;20130;-72
2021/04/25 00:25:00;;;;;;;1999.90;999.90;;;6.60;44.10;;;;;;5044554;28;20049;-72
2021/04/25 00:27:27;;;;;;;1999.90;999.90;;;6.50;44.10;;;;;;5052147;28;20132;-72
2021/04/25 00:29:54;;;;;;;1999.90;999.90;;;6.50;45.00;;;;;;5045132;28;20055;-72
2021/04/25 00:32:20;;;;;;;1999.90;999.90;;;6.50;44.80;;;;;;5037685;28;20056;-72
2021/04/25 00:34:47;;;;;;;1999.90;999.90;;;6.50;44.90;;;;;;5044357;28;20048;-72
2021/04/25 00:37:13;;;;;;;1999.90;999.90;;;6.60;45.10;;;;;;5043599;28;20041;-72
2021/04/25 00:39:39;;;;;;;1999.90;999.90;;;6.60;45.50;;;;;;5027470;28;20041;-72
2021/04/25 00:42:06;;;;;;;1999.90;999.90;;;6.60;45.30;;;;;;5037280;28;20051;-72
2021/04/25 00:44:32;;;;;;;1999.90;999.90;;;6.70;45.60;;;;;;5049553;28;20077;-73
2021/04/25 00:46:59;;;;;;;1999.90;999.90;;;6.80;45.50;;;;;;5041383;28;20041;-72
2021/04/25 00:49:25;;;;;;;1999.90;999.90;;;6.90;45.60;;;;;;5042238;28;20119;-72
2021/04/25 00:51:51;;;;;;;1999.90;999.90;;;6.90;45.90;;;;;;5047256;28;20139;-72
2021/04/25 00:54:18;;;;;;;1999.90;999.90;;;7.00;45.90;;;;;;5028479;28;20044;-73
2021/04/25 00:56:45;;;;;;;1999.90;999.90;;;7.00;45.90;;;;;;5045748;28;20083;-72
2021/04/25 00:59:11;;;;;;;1999.90;999.90;;;7.10;45.80;;;;;;5030855;28;20056;-72
2021/04/25 01:01:38;;;;;;;1999.90;999.90;;;7.20;46.10;;;;;;5024076;28;20267;-72
2021/04/25 01:04:04;;;;;;;1999.90;999.90;;;7.20;46.10;;;;;;5034840;28;20533;-72
2021/04/25 01:06:31;;;;;;;1999.90;999.90;;;7.30;46.30;;;;;;5049969;28;20448;-72
2021/04/25 01:08:57;;;;;;;1999.90;999.90;;;7.30;46.20;;;;;;5047458;28;20415;-72
2021/04/25 01:11:23;;;;;;;1999.90;999.90;;;7.30;46.20;;;;;;5040045;28;20055;-72
2021/04/25 01:13:59;;;;;;;1999.90;999.90;;;7.40;46.40;;;;;;5022698;28;20084;-73
2021/04/25 01:16:28;;;;;;;1999.90;999.90;;;7.40;46.20;;;;;;5046077;28;20051;-72
2021/04/25 01:18:55;;;;;;;1999.90;999.90;;;7.50;46.20;;;;;;5051837;28;20128;-72
2021/04/25 01:21:22;;;;;;;1999.90;999.90;;;7.50;46.30;;;;;;5042941;28;20403;-72
2021/04/25 01:23:49;;;;;;;1999.90;999.90;;;7.50;46.30;;;;;;5034302;28;20478;-73
2021/04/25 01:26:16;;;;;;;1999.90;999.90;;;7.50;46.30;;;;;;5026684;28;20104;-73
2021/04/25 01:28:42;;;;;;;1999.90;999.90;;;7.50;46.30;;;;;;5029337;28;20124;-73
2021/04/25 01:31:09;;;;;;;1999.90;999.90;;;7.50;46.60;;;;;;5047449;28;20049;-73
2021/04/25 01:33:36;;;;;;;1999.90;999.90;;;7.50;46.60;;;;;;5044589;28;20052;-72
2021/04/25 01:36:03;;;;;;;1999.90;999.90;;;7.50;46.60;;;;;;5019040;28;20125;-72
2021/04/25 01:38:30;;;;;;;1999.90;999.90;;;7.50;46.50;;;;;;5046724;28;20041;-72
2021/04/25 01:40:57;;;;;;;1999.90;999.90;;;7.50;46.70;;;;;;5042411;28;20434;-72
2021/04/25 01:43:23;;;;;;;1999.90;999.90;;;7.40;46.50;;;;;;5030673;28;20049;-72
2021/04/25 01:45:50;;;;;;;1999.90;999.90;;;7.40;46.40;;;;;;5045797;28;20057;-72
2021/04/25 01:48:16;;;;;;;1999.90;999.90;;;7.30;46.40;;;;;;5046293;28;20045;-73
2021/04/25 01:50:42;;;;;;;1999.90;999.90;;;7.30;46.30;;;;;;5041889;28;20394;-73
2021/04/25 01:53:10;;;;;;;1999.90;999.90;;;7.30;46.40;;;;;;5043458;28;20052;-72
2021/04/25 01:55:37;;;;;;;1999.90;999.90;;;7.30;46.60;;;;;;5042142;28;20273;-72
2021/04/25 01:58:05;;;;;;;1999.90;999.90;;;7.30;46.80;;;;;;5018238;28;20049;-72
2021/04/25 02:00:37;;;;;;;1999.90;999.90;;;7.30;46.80;;;;;;5043922;28;20047;-72
2021/04/25 02:03:04;;;;;;;1999.90;999.90;;;7.30;46.80;;;;;;5050434;28;20045;-72
2021/04/25 02:05:30;;;;;;;1999.90;999.90;;;7.30;46.80;;;;;;5023421;28;20049;-72
2021/04/25 02:07:57;;;;;;;1999.90;999.90;;;7.40;46.90;;;;;;5036048;28;20408;-72
2021/04/25 02:10:24;;;;;;;1999.90;999.90;;;7.40;47.20;;;;;;5045633;28;20053;-72
2021/04/25 02:12:52;;;;;;;1999.90;999.90;;;7.40;47.00;;;;;;5042145;28;20053;-72
2021/04/25 02:15:19;;;;;;;1999.90;999.90;;;7.40;47.20;;;;;;5046532;28;20045;-72
2021/04/25 02:17:45;;;;;;;1999.90;999.90;;;7.30;47.30;;;;;;5043258;28;20053;-72
2021/04/25 02:20:13;;;;;;;1999.90;999.90;;;7.30;47.30;;;;;;5034948;28;20412;-72
2021/04/25 02:22:40;;;;;;;1999.90;999.90;;;7.30;47.20;;;;;;5048479;28;20043;-72
2021/04/25 02:25:08;;;;;;;1999.90;999.90;;;7.40;48.10;;;;;;5044402;28;20067;-73
2021/04/25 02:27:35;;;;;;;1999.90;999.90;;;7.30;47.30;;;;;;5048206;28;20040;-73
2021/04/25 02:30:04;;;;;;;1999.90;999.90;;;7.30;47.40;;;;;;5053830;28;20049;-72
2021/04/25 02:32:30;;;;;;;1999.90;999.90;;;7.40;47.50;;;;;;5052331;28;20056;-72
2021/04/25 02:34:56;;;;;;;1999.90;999.90;;;7.40;47.50;;;;;;5048192;28;20076;-72
2021/04/25 02:37:23;;;;;;;1999.90;999.90;;;7.40;47.60;;;;;;5044928;28;20043;-72
2021/04/25 02:39:49;;;;;;;1999.90;999.90;;;7.40;47.70;;;;;;5042378;28;20069;-72
2021/04/25 02:42:18;;;;;;;1999.90;999.90;;;7.40;47.70;;;;;;5022348;28;20040;-72
2021/04/25 02:44:44;;;;;;;1999.90;999.90;;;7.40;47.70;;;;;;5040949;28;20041;-72
2021/04/25 02:47:10;;;;;;;1999.90;999.90;;;7.30;47.80;;;;;;5049753;28;20059;-72
2021/04/25 02:49:37;;;;;;;1999.90;999.90;;;7.30;47.70;;;;;;5041729;28;20485;-72
2021/04/25 02:52:03;;;;;;;1999.90;999.90;;;7.30;47.80;;;;;;5049927;28;20045;-72
2021/04/25 02:54:29;;;;;;;1999.90;999.90;;;7.30;47.90;;;;;;5029073;28;20057;-72
2021/04/25 02:56:56;;;;;;;1999.90;999.90;;;7.30;48.00;;;;;;5046693;28;20135;-72
2021/04/25 02:59:22;;;;;;;1999.90;999.90;;;7.30;48.00;;;;;;5046112;28;20045;-72
2021/04/25 03:01:48;;;;;;;1999.90;999.90;;;7.30;48.00;;;;;;5044880;28;20045;-72
2021/04/25 03:04:15;;;;;;;1999.90;999.90;;;7.30;48.30;;;;;;5019136;28;20420;-72
2021/04/25 03:06:41;;;;;;;1999.90;999.90;;;7.30;48.20;;;;;;5046826;28;20727;-73
2021/04/25 03:09:07;;;;;;;1999.90;999.90;;;7.20;48.80;;;;;;5023307;28;20732;-72
2021/04/25 03:11:33;;;;;;;1999.90;999.90;;;7.20;48.20;;;;;;5015229;28;20457;-72
2021/04/25 03:13:59;;;;;;;1999.90;999.90;;;7.20;48.40;;;;;;5036611;28;20368;-73
2021/04/25 03:16:26;;;;;;;1999.90;999.90;;;7.20;48.30;;;;;;5026132;28;20041;-72
2021/04/25 03:18:52;;;;;;;1999.90;999.90;;;7.20;48.50;;;;;;5042230;28;20052;-72
2021/04/25 03:21:19;;;;;;;1999.90;999.90;;;7.20;48.50;;;;;;5007306;28;20057;-72
2021/04/25 03:23:45;;;;;;;1999.90;999.90;;;7.20;48.50;;;;;;5024468;28;20393;-72
2021/04/25 03:26:13;;;;;;;1999.90;999.90;;;7.20;48.50;;;;;;5026276;28;20497;-72
2021/04/25 03:28:39;;;;;;;1999.90;999.90;;;7.20;48.40;;;;;;5016829;28;20534;-72
2021/04/25 03:31:05;;;;;;;1999.90;999.90;;;7.20;48.40;;;;;;5019153;28;20049;-72
2021/04/25 03:33:31;;;;;;;1999.90;999.90;;;7.20;48.30;;;;;;5025421;28;20361;-72
2021/04/25 03:36:00;;;;;;;1999.90;999.90;;;7.20;48.30;;;;;;5021186;28;20192;-72
2021/04/25 03:38:26;;;;;;;1999.90;999.90;;;7.20;48.40;;;;;;5021747;28;20056;-72
2021/04/25 03:40:56;;;;;;;1999.90;999.90;;;7.20;48.30;;;;;;5019725;28;20052;-72
2021/04/25 03:43:23;;;;;;;1999.90;999.90;;;7.20;48.30;;;;;;5012625;28;20120;-72
2021/04/25 03:45:49;;;;;;;1999.90;999.90;;;7.30;48.40;;;;;;5015449;28;20054;-72
2021/04/25 03:48:16;;;;;;;1999.90;999.90;;;7.30;48.30;;;;;;5025533;28;20431;-73
2021/04/25 03:50:42;;;;;;;1999.90;999.90;;;7.30;48.20;;;;;;5020912;28;20056;-72
2021/04/25 03:53:08;;;;;;;1999.90;999.90;;;7.30;48.30;;;;;;5024480;28;20093;-72
2021/04/25 03:55:35;;;;;;;1999.90;999.90;;;7.30;48.40;;;;;;5028277;28;20136;-72
2021/04/25 03:58:01;;;;;;;1999.90;999.90;;;7.30;48.40;;;;;;5004352;28;20056;-72
2021/04/25 04:00:28;;;;;;;1999.90;999.90;;;7.30;48.50;;;;;;5030058;28;20056;-72
2021/04/25 04:02:54;;;;;;;1999.90;999.90;;;7.30;48.50;;;;;;5031235;28;20057;-72
2021/04/25 04:05:21;;;;;;;1999.90;999.90;;;7.30;48.30;;;;;;5024641;28;20049;-72
2021/04/25 04:07:47;;;;;;;1999.90;999.90;;;7.30;48.30;;;;;;5010788;28;20096;-72
2021/04/25 04:10:13;;;;;;;1999.90;999.90;;;7.30;48.40;;;;;;5033569;28;20072;-72
2021/04/25 04:12:40;;;;;;;1999.90;999.90;;;7.30;48.50;;;;;;5026936;28;20064;-72
2021/04/25 04:15:07;;;;;;;1999.90;999.90;;;7.30;48.40;;;;;;5007812;28;20053;-72
2021/04/25 04:17:34;;;;;;;1999.90;999.90;;;7.30;48.60;;;;;;5021147;28;20458;-73
2021/04/25 04:20:00;;;;;;;1999.90;999.90;;;7.30;48.50;;;;;;5029757;28;20048;-72
2021/04/25 04:22:27;;;;;;;1999.90;999.90;;;7.20;48.60;;;;;;5048438;28;20098;-72
2021/04/25 04:24:53;;;;;;;1999.90;999.90;;;7.20;48.50;;;;;;5047517;28;20408;-72
2021/04/25 04:27:19;;;;;;;1999.90;999.90;;;7.20;48.70;;;;;;5046303;28;20059;-72
2021/04/25 04:29:46;;;;;;;1999.90;999.90;;;7.20;48.50;;;;;;5047388;28;20059;-73
2021/04/25 04:32:12;;;;;;;1999.90;999.90;;;7.20;48.90;;;;;;5040506;28;20081;-72
2021/04/25 04:34:38;;;;;;;1999.90;999.90;;;7.20;49.00;;;;;;5025879;28;20056;-73
2021/04/25 04:37:05;;;;;;;1999.90;999.90;;;7.20;49.00;;;;;;5041504;28;20040;-72
2021/04/25 04:39:31;;;;;;;1999.90;999.90;;;7.20;48.90;;;;;;5043535;28;20128;-73
2021/04/25 04:41:58;;;;;;;1999.90;999.90;;;7.10;48.90;;;;;;5043139;28;20045;-72
2021/04/25 04:44:24;;;;;;;1999.90;999.90;;;7.10;49.00;;;;;;5025294;28;20053;-73
2021/04/25 04:46:50;;;;;;;1999.90;999.90;;;7.10;49.00;;;;;;5046067;28;20051;-73
2021/04/25 04:49:16;;;;;;;1999.90;999.90;;;7.10;48.90;;;;;;5043399;28;20141;-72
2021/04/25 04:52:11;;;;;;;1999.90;999.90;;;7.00;48.80;;;;;;5041722;28;20049;-72
2021/04/25 04:54:49;;;;;;;1999.90;999.90;;;7.00;49.10;;;;;;5042707;28;20276;-72
2021/04/25 04:57:16;;;;;;;1999.90;999.90;;;7.00;48.70;;;;;;5044136;28;20404;-72
2021/04/25 04:59:42;;;;;;;1999.90;999.90;;;7.00;48.70;;;;;;5029354;28;20055;-72
2021/04/25 05:02:10;;;;;;;1999.90;999.90;;;7.00;48.60;;;;;;5043177;28;20049;-73
2021/04/25 05:04:36;;;;;;;1999.90;999.90;;;7.00;48.60;;;;;;5024866;28;20064;-73
2021/04/25 05:07:03;;;;;;;1999.90;999.90;;;7.00;48.80;;;;;;5035860;28;20400;-72
2021/04/25 05:09:29;;;;;;;1999.90;999.90;;;7.00;48.60;;;;;;5021277;28;20403;-72
2021/04/25 05:11:56;;;;;;;1999.90;999.90;;;7.00;48.90;;;;;;5019641;28;20049;-73
2021/04/25 05:14:24;;;;;;;1999.90;999.90;;;7.00;49.00;;;;;;5039970;28;20104;-72
2021/04/25 05:16:50;;;;;;;1999.90;999.90;;;7.00;48.80;;;;;;5029379;28;20060;-72
2021/04/25 05:19:16;;;;;;;1999.90;999.90;;;7.00;48.90;;;;;;5047186;28;20140;-72
2021/04/25 05:21:43;;;;;;;1999.90;999.90;;;7.00;48.90;;;;;;5045780;28;20383;-73
2021/04/25 05:24:10;;;;;;;1999.90;999.90;;;7.00;49.00;;;;;;5023117;28;20530;-73
2021/04/25 05:26:36;;;;;;;1999.90;999.90;;;7.00;48.90;;;;;;5052051;28;20053;-72
2021/04/25 05:29:03;;;;;;;1999.90;999.90;;;7.00;49.10;;;;;;5042876;28;20111;-72
2021/04/25 05:31:30;;;;;;;1999.90;999.90;;;7.00;49.10;;;;;;5053522;28;20128;-72
2021/04/25 05:33:56;;;;;;;1999.90;999.90;;;7.10;49.30;;;;;;5027313;28;20506;-72
2021/04/25 05:36:23;;;;;;;1999.90;999.90;;;7.10;49.60;;;;;;5030497;28;20464;-72
2021/04/25 05:38:49;;;;;;;1999.90;999.90;;;7.10;49.20;;;;;;5050121;28;20151;-72
2021/04/25 05:41:17;;;;;;;1999.90;999.90;;;7.10;49.20;;;;;;5045688;28;20091;-72
2021/04/25 05:43:46;;;;;;;1999.90;999.90;;;7.10;49.30;;;;;;5020645;28;20536;-72
2021/04/25 05:46:14;;;;;;;1999.90;999.90;;;7.20;49.30;;;;;;5054326;28;20045;-73
2021/04/25 05:48:43;;;;;;;1999.90;999.90;;;7.20;49.40;;;;;;5040351;28;20124;-72
2021/04/25 05:51:10;;;;;;;1999.90;999.90;;;7.30;49.60;;;;;;5040864;28;20346;-72
2021/04/25 05:53:36;;;;;;;1999.90;999.90;;;7.30;49.40;;;;;;5050441;28;20397;-73
2021/04/25 05:56:03;;;;;;;1999.90;999.90;;;7.30;49.60;;;;;;5049132;28;20045;-73
2021/04/25 05:58:29;;;;;;;1999.90;999.90;;;7.40;49.50;;;;;;5042424;28;20477;-72
2021/04/25 06:00:56;;;;;;;1999.90;999.90;;;7.40;49.80;;;;;;5047828;28;20487;-73
2021/04/25 06:03:22;;;;;;;1999.90;999.90;;;7.50;49.80;;;;;;5044198;28;20071;-73
2021/04/25 06:05:48;;;;;;;1999.90;999.90;;;7.50;50.10;;;;;;5045429;28;20048;-73
2021/04/25 06:08:14;;;;;;;1999.90;999.90;;;7.50;50.00;;;;;;5046675;28;20072;-73
2021/04/25 06:10:41;;;;;;;1999.90;999.90;;;7.50;50.00;;;;;;5050960;28;20499;-73
2021/04/25 06:13:07;;;;;;;1999.90;999.90;;;7.50;50.10;;;;;;5028527;28;20045;-72
2021/04/25 06:15:34;;;;;;;1999.90;999.90;;;7.50;50.10;;;;;;5042822;28;20052;-72
2021/04/25 06:18:02;;;;;;;1999.90;999.90;;;7.50;50.20;;;;;;5043129;28;20044;-72
2021/04/25 06:20:41;;;;;;;1999.90;999.90;;;7.50;50.20;;;;;;5023911;28;20053;-72
2021/04/25 06:23:08;;;;;;;1999.90;999.90;;;7.60;50.20;;;;;;5053880;28;20037;-72
2021/04/25 06:25:35;;;;;;;1999.90;999.90;;;7.60;50.00;;;;;;5021847;28;20052;-72
2021/04/25 06:28:01;;;;;;;1999.90;999.90;;;7.60;50.10;;;;;;5039647;28;20831;-73
2021/04/25 06:30:28;;;;;;;1999.90;999.90;;;7.70;50.10;;;;;;5030469;28;20052;-72
2021/04/25 06:32:55;;;;;;;1999.90;999.90;;;7.70;50.10;;;;;;5022779;28;20495;-72
2021/04/25 06:35:21;;;;;;;1999.90;999.90;;;7.70;50.30;;;;;;5031361;28;20105;-72
2021/04/25 06:37:48;;;;;;;1999.90;999.90;;;7.80;50.40;;;;;;5020983;28;20040;-73
2021/04/25 06:40:15;;;;;;;1999.90;999.90;;;7.80;50.40;;;;;;5033699;28;20060;-72
2021/04/25 06:42:42;;;;;;;1999.90;999.90;;;7.80;50.60;;;;;;5043143;28;20124;-72
2021/04/25 06:45:09;;;;;;;1999.90;999.90;;;7.80;50.60;;;;;;5016809;28;20045;-72
2021/04/25 06:47:36;;;;;;;1999.90;999.90;;;7.80;50.50;;;;;;5033668;28;20051;-72
2021/04/25 06:50:10;;;;;;;1999.90;999.90;;;7.80;50.60;;;;;;5040787;28;20084;-72
2021/04/25 06:52:41;;;;;;;1999.90;999.90;;;7.90;50.70;;;;;;5039403;28;20071;-72
2021/04/25 06:55:09;;;;;;;1999.90;999.90;;;7.90;50.70;;;;;;5049173;28;20049;-72
2021/04/25 06:57:35;;;;;;;1999.90;999.90;;;8.00;50.70;;;;;;5021262;28;20041;-72
2021/04/25 07:00:06;;;;;;;1999.90;999.90;;;8.00;50.80;;;;;;5049366;28;20049;-72
2021/04/25 07:02:33;;;;;;;1999.90;999.90;;;8.00;50.80;;;;;;5024849;28;20132;-72
2021/04/25 07:05:01;;;;;;;1999.90;999.90;;;8.10;50.80;;;;;;5042733;28;20052;-73
2021/04/25 07:07:27;;;;;;;1999.90;999.90;;;8.20;50.90;;;;;;5038566;28;20096;-72
2021/04/25 07:09:53;;;;;;;1999.90;999.90;;;8.30;51.00;;;;;;5026886;28;20058;-72
2021/04/25 07:12:19;;;;;;;1999.90;999.90;;;8.30;51.10;;;;;;5042649;28;20055;-72
2021/04/25 07:14:45;;;;;;;1999.90;999.90;;;8.30;51.10;;;;;;5024902;28;20529;-72
2021/04/25 07:17:11;;;;;;;1999.90;999.90;;;8.30;51.00;;;;;;5037434;28;20041;-72
2021/04/25 07:19:38;;;;;;;1999.90;999.90;;;8.40;51.30;;;;;;5042683;28;20135;-72
2021/04/25 07:22:04;;;;;;;1999.90;999.90;;;8.30;51.20;;;;;;5020622;28;20426;-72
2021/04/25 07:24:30;;;;;;;1999.90;999.90;;;8.40;51.20;;;;;;5044768;28;20041;-73
2021/04/25 07:26:56;;;;;;;1999.90;999.90;;;8.40;51.20;;;;;;5042858;28;20063;-72
2021/04/25 07:29:23;;;;;;;1999.90;999.90;;;8.50;51.30;;;;;;5049648;28;20057;-73
2021/04/25 07:31:50;;;;;;;1999.90;999.90;;;8.50;51.50;;;;;;5043931;28;20522;-72
2021/04/25 07:34:17;;;;;;;1999.90;999.90;;;8.60;51.60;;;;;;5031426;28;20065;-72
2021/04/25 07:36:43;;;;;;;1999.90;999.90;;;8.70;51.60;;;;;;5045889;28;20049;-72
2021/04/25 07:39:09;;;;;;;1999.90;999.90;;;8.70;51.80;;;;;;5029882;28;20457;-72
2021/04/25 07:41:35;;;;;;;1999.90;999.90;;;8.80;51.80;;;;;;5033858;28;20047;-72
2021/04/25 07:44:02;;;;;;;1999.90;999.90;;;8.90;52.10;;;;;;5038765;28;20049;-72
2021/04/25 07:46:28;;;;;;;1999.90;999.90;;;9.00;51.90;;;;;;5032159;28;20049;-72
2021/04/25 07:48:55;;;;;;;1999.90;999.90;;;8.90;52.50;;;;;;5042212;28;20477;-72
2021/04/25 07:51:21;;;;;;;1999.90;999.90;;;8.90;52.00;;;;;;5047918;28;20049;-73
2021/04/25 07:53:50;;;;;;;1999.90;999.90;;;8.90;52.00;;;;;;5046028;28;20127;-72
2021/04/25 07:56:18;;;;;;;1999.90;999.90;;;9.00;52.10;;;;;;5036398;28;20091;-72
2021/04/25 07:58:44;;;;;;;1999.90;999.90;;;9.00;52.20;;;;;;5039049;28;20045;-72
2021/04/25 08:01:11;;;;;;;1999.90;999.90;;;9.00;52.20;;;;;;5034060;28;20143;-73
2021/04/25 08:03:37;;;;;;;1999.90;999.90;;;9.10;52.30;;;;;;5041437;28;20128;-72
2021/04/25 08:06:05;;;;;;;1999.90;999.90;;;9.10;52.30;;;;;;5039434;28;20049;-72
2021/04/25 08:08:32;;;;;;;1999.90;999.90;;;9.20;52.30;;;;;;5037652;28;20056;-72
2021/04/25 08:11:06;;;;;;;1999.90;999.90;;;9.30;52.40;;;;;;5036987;28;20075;-72
2021/04/25 08:13:32;;;;;;;1999.90;999.90;;;9.40;52.40;;;;;;5044159;28;20056;-72
2021/04/25 08:15:58;;;;;;;1999.90;999.90;;;9.50;52.50;;;;;;5026158;28;20053;-72
2021/04/25 08:18:25;;;;;;;1999.90;999.90;;;9.50;52.50;;;;;;5045538;28;20119;-73
2021/04/25 08:20:51;;;;;;;1999.90;999.90;;;9.60;52.80;;;;;;5045834;28;20049;-73
2021/04/25 08:23:17;;;;;;;1999.90;999.90;;;9.70;52.70;;;;;;5040661;28;20519;-72
2021/04/25 08:25:44;;;;;;;1999.90;999.90;;;9.70;52.60;;;;;;5037059;28;20048;-72
2021/04/25 08:28:11;;;;;;;1999.90;999.90;;;9.70;52.60;;;;;;5025032;28;20056;-73
2021/04/25 08:30:37;;;;;;;1999.90;999.90;;;9.70;52.70;;;;;;5024982;28;20136;-72
2021/04/25 08:33:03;;;;;;;1999.90;999.90;;;9.80;52.70;;;;;;5051184;28;20475;-73
2021/04/25 08:35:30;;;;;;;1999.90;999.90;;;9.80;52.70;;;;;;5023593;28;20049;-73
2021/04/25 08:37:56;;;;;;;1999.90;999.90;;;9.90;52.80;;;;;;5043284;28;20129;-72
2021/04/25 08:40:22;;;;;;;1999.90;999.90;;;10.00;52.00;;;;;;5043537;28;20049;-72
2021/04/25 08:42:49;;;;;;;1999.90;999.90;;;10.00;52.00;;;;;;5056838;28;20044;-72
2021/04/25 08:45:15;;;;;;;1999.90;999.90;;;10.10;52.20;;;;;;5021099;28;20047;-72
2021/04/25 08:47:52;;;;;;;1999.90;999.90;;;10.20;52.30;;;;;;5037359;28;20128;-72
2021/04/25 08:50:19;;;;;;;1999.90;999.90;;;10.30;52.30;;;;;;5042017;28;20045;-73
2021/04/25 08:52:45;;;;;;;1999.90;999.90;;;10.30;52.30;;;;;;5038600;28;20079;-72
2021/04/25 08:55:13;;;;;;;1999.90;999.90;;;10.40;52.50;;;;;;5009868;28;20434;-72
2021/04/25 08:57:39;;;;;;;1999.90;999.90;;;10.50;52.60;;;;;;5041014;28;20049;-72
2021/04/25 09:00:07;;;;;;;1999.90;999.90;;;10.60;52.70;;;;;;5040857;28;20045;-72
2021/04/25 09:02:34;;;;;;;1999.90;999.90;;;10.70;52.70;;;;;;5046090;28;20052;-72
2021/04/25 09:05:01;;;;;;;1999.90;999.90;;;10.80;52.80;;;;;;5042527;28;20445;-72
2021/04/25 09:07:28;;;;;;;1999.90;999.90;;;10.90;52.70;;;;;;5046375;28;20496;-72
2021/04/25 09:09:56;;;;;;;1999.90;999.90;;;11.00;52.80;;;;;;5046778;28;20497;-73
2021/04/25 09:12:39;;;;;;;1999.90;999.90;;;11.10;52.80;;;;;;5040986;28;20071;-72
2021/04/25 09:15:30;;;;;;;1999.90;999.90;;;11.00;52.80;;;;;;5051249;28;20051;-72
2021/04/25 09:18:02;;;;;;;1999.90;999.90;;;11.10;52.80;;;;;;5038222;28;20403;-72
2021/04/25 09:20:32;;;;;;;1999.90;999.90;;;11.10;52.90;;;;;;5045481;28;20500;-72
2021/04/25 09:22:58;;;;;;;1999.90;999.90;;;11.20;52.90;;;;;;5045125;28;20053;-72
2021/04/25 09:25:25;;;;;;;1999.90;999.90;;;11.20;52.90;;;;;;5024690;28;20045;-73
2021/04/25 09:27:51;;;;;;;1999.90;999.90;;;11.20;52.80;;;;;;5022032;28;20060;-72
2021/04/25 09:30:23;;;;;;;1999.90;999.90;;;11.20;52.90;;;;;;5027017;28;20056;-73
2021/04/25 09:33:11;;;;;;;1999.90;999.90;;;11.20;52.90;;;;;;5040129;28;20045;-72
2021/04/25 09:35:39;;;;;;;1999.90;999.90;;;11.20;52.90;;;;;;5019345;28;20139;-73
2021/04/25 09:38:11;;;;;;;1999.90;999.90;;;11.20;52.90;;;;;;5044091;28;20040;-72
2021/04/25 09:40:45;;;;;;;1999.90;999.90;;;11.20;53.00;;;;;;5035321;28;20049;-72
2021/04/25 09:43:16;;;;;;;1999.90;999.90;;;11.30;53.10;;;;;;5040294;28;20457;-72
2021/04/25 09:45:47;;;;;;;1999.90;999.90;;;11.30;53.10;;;;;;5038313;28;20045;-72
2021/04/25 09:48:27;;;;;;;1999.90;999.90;;;11.40;53.00;;;;;;5035879;28;20067;-72
2021/04/25 09:51:14;;;;;;;1999.90;999.90;;;11.40;52.90;;;;;;5038563;28;20056;-72
2021/04/25 09:53:56;;;;;;;1999.90;999.90;;;11.40;52.80;;;;;;5041806;28;20055;-72
2021/04/25 09:56:37;;;;;;;1999.90;999.90;;;11.40;52.90;;;;;;5043695;28;20045;-72
2021/04/25 09:59:06;;;;;;;1999.90;999.90;;;11.50;53.00;;;;;;5042830;28;20057;-73
2021/04/25 10:01:38;;;;;;;1999.90;999.90;;;11.60;53.30;;;;;;5056265;28;20048;-72
2021/04/25 10:04:26;;;;;;;1999.90;999.90;;;11.70;53.30;;;;;;5037008;28;20486;-73
2021/04/25 10:06:55;;;;;;;1999.90;999.90;;;11.70;53.00;;;;;;5037281;28;20045;-73
2021/04/25 10:09:21;;;;;;;1999.90;999.90;;;11.80;53.10;;;;;;5044490;28;20057;-72
2021/04/25 10:11:52;;;;;;;1999.90;999.90;;;11.80;53.20;;;;;;5041804;28;20059;-73
2021/04/25 10:14:19;;;;;;;1999.90;999.90;;;11.90;53.40;;;;;;5020990;28;20123;-72
2021/04/25 10:16:45;;;;;;;1999.90;999.90;;;12.00;53.50;;;;;;5022835;28;20045;-72
2021/04/25 10:19:13;;;;;;;1999.90;999.90;;;12.10;53.60;;;;;;5022149;28;20068;-73
2021/04/25 10:21:44;;;;;;;1999.90;999.90;;;12.10;53.50;;;;;;5024155;28;20049;-73
2021/04/25 10:24:11;;;;;;;1999.90;999.90;;;12.20;53.40;;;;;;5048724;28;20041;-72
2021/04/25 10:26:49;;;;;;;1999.90;999.90;;;12.30;53.50;;;;;;5047287;28;20045;-73
2021/04/25 10:29:38;;;;;;;1999.90;999.90;;;12.40;53.40;;;;;;5044148;28;20068;-72
2021/04/25 10:32:06;;;;;;;1999.90;999.90;;;12.40;53.50;;;;;;5044059;28;20051;-72
2021/04/25 10:34:33;;;;;;;1999.90;999.90;;;12.50;53.80;;;;;;5044700;28;20510;-72
2021/04/25 10:37:02;;;;;;;1999.90;999.90;;;12.70;53.80;;;;;;5044535;28;20167;-72
2021/04/25 10:39:50;;;;;;;1999.90;999.90;;;12.90;54.20;;;;;;5048690;28;20045;-73
2021/04/25 10:42:20;;;;;;;;;;;13.10;54.30;;;;;;5030491;28;20041;-72
2021/04/25 10:47:46;;;;;;;1999.90;999.90;;;13.50;55.40;;;;;;5043822;28;20051;-72
2021/04/25 10:50:12;;;;;;;1999.90;999.90;;;13.70;55.50;;;;;;5035543;28;20296;-73
2021/04/25 10:52:40;;;;;;;1999.90;999.90;;;13.70;55.10;;;;;;5046862;28;20041;-72
2021/04/25 10:55:20;;;;;;;1999.90;999.90;;;13.80;55.00;;;;;;5042397;28;20057;-72
2021/04/25 10:58:07;;;;;;;1999.90;999.90;;;13.80;54.70;;;;;;5039047;28;20473;-72
2021/04/25 11:00:37;;;;;;;1999.90;999.90;;;13.80;54.40;;;;;;5041877;28;20056;-72
2021/04/25 11:03:05;;;;;;;1999.90;999.90;;;13.70;55.30;;;;;;5046605;28;20104;-73
2021/04/25 11:05:41;;;;;;;1999.90;999.90;;;13.80;55.10;;;;;;5043967;28;20056;-73
2021/04/25 11:08:13;;;;;;;1999.90;999.90;;;13.90;55.20;;;;;;5039947;28;20045;-73
2021/04/25 11:10:48;;;;;;;1999.90;999.90;;;14.00;54.30;;;;;;5048618;28;20137;-72
2021/04/25 11:13:36;;;;;;;1999.90;999.90;;;14.00;54.50;;;;;;5027780;28;20159;-72
2021/04/25 11:16:09;;;;;;;1999.90;999.90;;;13.90;54.50;;;;;;5024111;28;20079;-72
2021/04/25 11:18:54;;;;;;;1999.90;999.90;;;13.90;54.90;;;;;;5038332;28;20049;-72
2021/04/25 11:21:27;;;;;;;1999.90;999.90;;;14.00;54.60;;;;;;5040909;28;20095;-72
2021/04/25 11:23:56;;;;;;;1999.90;999.90;;;14.10;55.00;;;;;;5023904;28;20041;-73
2021/04/25 11:26:42;;;;;;;1999.90;999.90;;;14.20;54.90;;;;;;5044935;28;20447;-73
2021/04/25 11:29:16;;;;;;;1999.90;999.90;;;14.30;54.70;;;;;;5040983;28;20045;-73
2021/04/25 11:34:34;;;;;;;1999.90;999.90;;;15.00;55.50;;;;;;5038491;28;20128;-73
2021/04/25 11:37:02;;;;;;;1999.90;999.90;;;15.30;55.10;;;;;;5018287;28;20054;-72
2021/04/25 11:39:33;;;;;;;1999.90;999.90;;;15.30;54.80;;;;;;5022099;28;20052;-73
2021/04/25 11:42:01;;;;;;;1999.90;999.90;;;15.40;55.60;;;;;;5043345;28;20129;-72
2021/04/25 11:44:33;;;;;;;1999.90;999.90;;;15.70;57.70;;;;;;5040269;28;20132;-72
2021/04/25 11:47:09;;;;;;;1999.90;999.90;;;16.00;58.10;;;;;;5046675;28;20148;-72
2021/04/25 11:49:37;;;;;;;1999.90;999.90;;;16.20;59.30;;;;;;5047278;28;20148;-73
2021/04/25 11:52:18;;;;;;;1999.90;999.90;;;16.50;60.60;;;;;;5045193;28;20079;-72
2021/04/25 11:54:47;;;;;;;1999.90;999.90;;;16.60;60.50;;;;;;5044557;28;20105;-72
2021/04/25 11:57:15;;;;;;;1999.90;999.90;;;16.90;60.80;;;;;;5018671;28;20051;-73
2021/04/25 12:00:07;;;;;;;1999.90;999.90;;;16.90;60.20;;;;;;5052862;28;20051;-73
2021/04/25 12:02:47;;;;;;;1999.90;999.90;;;16.90;59.90;;;;;;5049288;28;20079;-73
2021/04/25 12:05:23;;;;;;;1999.90;999.90;;;17.10;58.90;;;;;;5034660;28;20469;-72
2021/04/25 12:07:58;;;;;;;1999.90;999.90;;;17.40;58.80;;;;;;5038048;28;20053;-72
2021/04/25 12:10:33;;;;;;;1999.90;999.90;;;17.90;57.90;;;;;;5023620;28;20049;-72
2021/04/25 12:13:05;;;;;;;1999.90;999.90;;;18.10;60.90;;;;;;5041619;28;20209;-73
2021/04/25 12:15:40;;;;;;;1999.90;999.90;;;18.40;62.60;;;;;;5044598;28;20063;-72
2021/04/25 12:18:07;;;;;;;1999.90;999.90;;;18.70;65.60;;;;;;5020597;28;20476;-72